Terminal Aerodrome Forecast
Issued by NWS Amarillo, TX

Home | Current Version | Previous Version | Text Only | Print | Product List | Glossary On
Versions: 1 2 3 4 5 6 7 8 9 10 11 12 13 14 15 16 17 18 19 20 21 22 23 24 25 26 27 28 29
000
FTUS44 KAMA 301100
TAFAMA
TAF
KAMA 301131Z 3012/3112 15009KT 6SM BR VCTS BKN005 OVC035CB
      TEMPO 3012/3015 4SM BR BKN025
     FM301500 31014KT P6SM -RA VCTS SCT006 BKN025CB
     FM302000 36012KT P6SM SCT025 OVC080
     FM310600 03009KT P6SM SCT005 OVC040=

USA.gov is the U.S. government's official web portal to all federal, state and local government web resources and services.